Aitkin, MN

1:12 AM CDT on August 30, 2014 (GMT -0500)
Aitkin Municipal / Steve Kurtz Field | Change Station
CLOSE
Current Station
Airport
Location: Aitkin,
Elevation: 1204 ft
Nearby Weather Stations

Elev 1204 ft 46.55 °N, 93.68 °W | Updated 18 minutes ago

Overcast
Overcast
66 °F
Feels Like 66 °F
N
0
Wind Variable Wind from North

Today
High -- | Low -- °F
--% Chance of Precip.
Yesterday
High -- | Low -- °F
Precip. -- in
6:32 AM 7:57 PM
Waxing Crescent, 19% visible
Pressure 29.80 in
Visibility 7.0 miles
Clouds Overcast 400 ft
Dew Point 61 °F
Humidity 83%
Rainfall 0.00 in
Snow Depth Not available.
UV 0 out of 12
Pollen 8.30 out of 12
Air Quality Not available.
Flu Activity Not available.
METAR KAIT 300554Z AUTO 00000KT 7SM OVC004 19/16 A2980 RMK AO2

More Conditions Fewer Conditions

Pressure 29.80 in
Visibility 7.0 miles
Clouds Overcast 400 ft
Dew Point 61 °F
Humidity 83%
Rainfall 0.00 in
Snow Depth Not available.
UV 0 out of 12
Pollen 8.30 out of 12
Air Quality Not available.
Flu Activity Not available.
METAR KAIT 300554Z AUTO 00000KT 7SM OVC004 19/16 A2980 RMK AO2

More Conditions Fewer Conditions

10-Day Weather Forecast

Almanac

Astronomy

Aug. 30, 2014 Rise Set
Actual Time 6:32 AM CDT 7:57 PM CDT
Civil Twilight 6:00 AM CDT 8:28 PM CDT
Nautical Twilight 5:22 AM CDT 9:06 PM CDT
Astronomical Twilight 4:41 AM CDT 9:47 PM CDT
Moon 11:39 AM CDT 10:12 PM CDT
Length of Visible Light 14h 27m
Length of Day
13h 25m
Tomorrow will be 3m 10s shorter.
Waxing Crescent, 19% of the Moon is Illuminated
Today
Waxing Crescent
Sep 2
First Quarter
Sep 8
Full
Sep 15
Last Quarter
Sep 24
New

Today's Extremes

State Highs State Lows

Community

WunderPhotos

Upload Photos

1,748,465 photos uploaded!

Nearby

Snow Depth

Station Depth Elevation
No new snow has been reported.

Earthquake Activity

City Distance Mag. Time & Date
No recent earthquake activity has been reported nearby.
Minimum magnitude displayed is 2.5.

Coastal Water Temperatures

Place Temperature
No Stations Reporting

Nearby Weather Stations